Nearby METAR Reports

 

KVTN - Valentine, Nebraska, USA
Distance from station: S 1.3mi, 2.1km
Updated: Mon, 25-Sep-2017 12:39am CDT
Mist, Overcast
Mist, Overcast
 Wind from N
Wind: N 10 mph , 17 km/h
Temperature: 50°F , 10°C
Wind Chill: 46°F , 8°C
Dew Point: 48°F , 9°C
Humidity: 94%
Barometer: 30.08 inHg , 1018.6 hPa
Summary: Mist
Clouds: Overcast
Visibility: 4 miles , 6 km
Cloud details: Overcast 900 ft
2017/09/25 05:39 KVTN 250539Z AUTO 01009KT 4SM BR OVC009 10/09 A3008 RMK AO2 RAE01 CIG 006V011 P0000 T01000089
KANW - Ainsworth, Nebraska, USA
Distance from station: SE 36mi, 57km
Updated: Mon, 25-Sep-2017 12:35am CDT
Overcast
Overcast
 Wind from NNE
Wind: NNE 8 mph , 13 km/h, Gust: 16 mph , 26 km/h
Temperature: 50°F , 10°C
Wind Chill: 47°F , 8°C
Dew Point: 48°F , 9°C
Humidity: 94%
Barometer: 30.07 inHg , 1018.3 hPa
Clouds: Overcast
Visibility: 10 miles , 16 km
Cloud details: Mostly cloudy 900 ft
Overcast 1400 ft
2017/09/25 05:35 KANW 250535Z AUTO 02007G14KT 10SM BKN009 OVC014 10/09 A3007 RMK AO2 T00970094
 
KICR - Winner, South Dakota, USA
Distance from station: NE 50mi, 80km
Updated: Sun, 24-Sep-2017 11:53pm CDT
Overcast
Overcast
 Wind from NNE
Wind: NNE 8 mph , 13 km/h
Temperature: 52°F , 11°C
Dew Point: 48°F , 9°C
Humidity: 88%
Barometer: 30.08 inHg , 1018.6 hPa
Clouds: Overcast
Visibility: 10 miles , 16 km
Cloud details: Few Clouds 1400 ft
Mostly cloudy 2200 ft
Overcast 2800 ft
2017/09/25 04:53 KICR 250453Z AUTO 02007KT 10SM FEW014 BKN022 OVC028 11/09 A3008 RMK AO2 RAB02E11 SLP189 P0000 T01110094
KTIF - Thedford, Nebraska, USA
Distance from station: S 63mi, 101km
Updated: Mon, 25-Sep-2017 12:35am CDT
Overcast
Overcast
 Wind from NNE
Wind: NNE 17 mph , 28 km/h
Temperature: 50°F , 10°C
Wind Chill: 44°F , 7°C
Dew Point: 48°F , 9°C
Humidity: 94%
Barometer: 30.04 inHg , 1017.3 hPa
Clouds: Overcast
Visibility: 10 miles , 16 km
Cloud details: Overcast 900 ft
2017/09/25 05:35 KTIF 250535Z AUTO 03015KT 10SM OVC009 10/09 A3004 RMK AO2 LTG DSNT SW T01000090
 
K9V9 - Chamberlain, South Dakota, USA
Distance from station: NE 87mi, 141km
Updated: Mon, 25-Sep-2017 12:35am CDT
Overcast
Overcast
 Wind from NNE
Wind: NNE 10 mph , 17 km/h
Temperature: 54°F , 12°C
Dew Point: 50°F , 10°C
Humidity: 88%
Barometer: 30.07 inHg , 1018.3 hPa
Clouds: Overcast
Visibility: 10 miles , 16 km
Cloud details: Mostly cloudy 2000 ft
Overcast 2600 ft
2017/09/25 05:35 K9V9 250535Z AUTO 02009KT 10SM BKN020 OVC026 12/10 A3007 RMK AO2 T01170100
KIEN - Pine Ridge, South Dakota, USA
Distance from station: W 99mi, 160km
Updated: Sun, 24-Sep-2017 11:52pm CDT
Overcast
Overcast
 Wind from NE
Wind: NE 6 mph , 9 km/h
Temperature: 46°F , 8°C
Wind Chill: 43°F , 6°C
Dew Point: 45°F , 7°C
Humidity: 93%
Barometer: 30.10 inHg , 1019.3 hPa
Clouds: Overcast
Visibility: 10 miles , 16 km
Cloud details: Overcast 2600 ft
2017/09/25 04:52 KIEN 250452Z AUTO 04005KT 10SM OVC026 08/07 A3010 RMK AO2 RAB05E29 SLP196 P0001 T00780067
 
KPIR - Pierre, South Dakota, USA
Distance from station: N 105mi, 169km
Updated: Sun, 24-Sep-2017 11:53pm CDT
Light rain, Overcast
Light rain, Overcast
 Wind from N
Wind: N 12 mph , 19 km/h
Temperature: 48°F , 9°C
Wind Chill: 43°F , 6°C
Dew Point: 46°F , 8°C
Humidity: 94%
Barometer: 30.08 inHg , 1018.6 hPa
Summary: Light rain
Clouds: Overcast
Visibility: 9 miles , 14 km
Cloud details: Few Clouds 1200 ft
Overcast 2100 ft
2017/09/25 04:53 KPIR 250453Z AUTO 36010KT 9SM -RA FEW012 OVC021 09/08 A3008 RMK AO2 RAB33 SLP189 P0001 T00940078 $
KLBF - North Platte, Nebraska, USA
Distance from station: S 120mi, 193km
Updated: Mon, 25-Sep-2017 12:40am CDT
Overcast
Overcast
 Wind from NE
Wind: NE 15 mph , 24 km/h
Temperature: 52°F , 11°C
Dew Point: 48°F , 9°C
Humidity: 88%
Barometer: 30.01 inHg , 1016.3 hPa
Clouds: Overcast
Visibility: 10 miles , 16 km
Cloud details: Mostly cloudy 900 ft
Overcast 2200 ft
2017/09/25 05:40 KLBF 250540Z AUTO 05013KT 10SM BKN009 OVC022 11/09 A3001 RMK AO2 RAB11E30 CIG 008V013 P0001 T01060094
 
KBBW - Broken Bow Muni, Nebraska, USA
Distance from station: SSE 110mi, 177km
Updated: Mon, 25-Sep-2017 12:28am CDT
Overcast
Overcast
 Wind from NNE
Wind: NNE 9 mph , 15 km/h
Temperature: 52°F , 11°C
Dew Point: 52°F , 11°C
Humidity: 100%
Barometer: 30.01 inHg , 1016.3 hPa
Clouds: Overcast
Visibility: 10 miles , 16 km
Cloud details: Few Clouds 700 ft
Partly cloudy 1200 ft
Overcast 2500 ft
2017/09/25 05:28 KBBW 250528Z AUTO 02008KT 10SM FEW007 SCT012 OVC025 11/11 A3001 RMK AO2 RAE26 P0000 T01110106
KRAP - Rapid City, South Dakota, USA
Distance from station: NW 149mi, 240km
Updated: Sun, 24-Sep-2017 10:52pm CDT
NOT Current
Overcast
Overcast
 Wind from NNE
Wind: NNE 8 mph , 13 km/h
Temperature: 46°F , 8°C
Wind Chill: 42°F , 6°C
Dew Point: 43°F , 6°C
Humidity: 87%
Barometer: 30.12 inHg , 1020 hPa
Clouds: Overcast
Visibility: 10 miles , 16 km
Cloud details: Mostly cloudy 2000 ft
Overcast 2800 ft
2017/09/25 03:52 KRAP 250352Z 02007KT 10SM BKN020 OVC028 08/06 A3012